sensor_id;sensor_type;location;lat;lon;timestamp;temperature;humidity
31837;DHT22;18401;49.344;6.240;2022-07-31T00:00:28;17.40;99.90
31837;DHT22;18401;49.344;6.240;2022-07-31T00:02:54;17.30;99.90
31837;DHT22;18401;49.344;6.240;2022-07-31T00:05:20;19.10;99.90
31837;DHT22;18401;49.344;6.240;2022-07-31T00:07:45;17.00;99.90
31837;DHT22;18401;49.344;6.240;2022-07-31T00:10:11;16.90;99.90
31837;DHT22;18401;49.344;6.240;2022-07-31T00:12:37;16.80;99.90
31837;DHT22;18401;49.344;6.240;2022-07-31T00:15:04;16.80;99.90
31837;DHT22;18401;49.344;6.240;2022-07-31T00:17:30;17.00;99.90
31837;DHT22;18401;49.344;6.240;2022-07-31T00:19:56;17.10;99.90
31837;DHT22;18401;49.344;6.240;2022-07-31T00:22:22;17.30;99.90
31837;DHT22;18401;49.344;6.240;2022-07-31T00:24:47;17.40;99.90
31837;DHT22;18401;49.344;6.240;2022-07-31T00:27:13;17.40;99.90
31837;DHT22;18401;49.344;6.240;2022-07-31T00:29:38;17.80;99.90
31837;DHT22;18401;49.344;6.240;2022-07-31T00:32:04;17.30;99.90
31837;DHT22;18401;49.344;6.240;2022-07-31T00:34:30;17.10;99.90
31837;DHT22;18401;49.344;6.240;2022-07-31T00:36:56;17.10;99.90
31837;DHT22;18401;49.344;6.240;2022-07-31T00:39:22;17.20;99.90
31837;DHT22;18401;49.344;6.240;2022-07-31T00:41:49;17.10;99.90
31837;DHT22;18401;49.344;6.240;2022-07-31T00:44:15;17.00;99.90
31837;DHT22;18401;49.344;6.240;2022-07-31T00:46:41;17.10;99.90
31837;DHT22;18401;49.344;6.240;2022-07-31T00:49:07;17.10;99.90
31837;DHT22;18401;49.344;6.240;2022-07-31T00:51:40;17.70;99.90
31837;DHT22;18401;49.344;6.240;2022-07-31T00:54:07;17.10;99.90
31837;DHT22;18401;49.344;6.240;2022-07-31T00:56:33;17.00;99.90
31837;DHT22;18401;49.344;6.240;2022-07-31T00:58:59;16.80;99.90
31837;DHT22;18401;49.344;6.240;2022-07-31T01:01:26;16.70;99.90
31837;DHT22;18401;49.344;6.240;2022-07-31T01:03:52;16.70;99.90
31837;DHT22;18401;49.344;6.240;2022-07-31T01:06:18;16.80;99.90
31837;DHT22;18401;49.344;6.240;2022-07-31T01:08:44;16.90;99.90
31837;DHT22;18401;49.344;6.240;2022-07-31T01:11:14;16.80;99.90
31837;DHT22;18401;49.344;6.240;2022-07-31T01:13:57;16.70;99.90
31837;DHT22;18401;49.344;6.240;2022-07-31T01:16:26;16.70;99.90
31837;DHT22;18401;49.344;6.240;2022-07-31T01:18:55;16.60;99.90
31837;DHT22;18401;49.344;6.240;2022-07-31T01:21:31;16.40;99.90
31837;DHT22;18401;49.344;6.240;2022-07-31T01:29:46;16.20;99.90
31837;DHT22;18401;49.344;6.240;2022-07-31T01:32:33;16.00;99.90
31837;DHT22;18401;49.344;6.240;2022-07-31T01:35:02;16.00;99.90
31837;DHT22;18401;49.344;6.240;2022-07-31T01:37:32;15.90;99.90
31837;DHT22;18401;49.344;6.240;2022-07-31T01:40:04;15.80;99.90
31837;DHT22;18401;49.344;6.240;2022-07-31T01:42:35;15.70;99.90
31837;DHT22;18401;49.344;6.240;2022-07-31T01:45:04;15.60;99.90
31837;DHT22;18401;49.344;6.240;2022-07-31T01:47:32;15.50;99.90
31837;DHT22;18401;49.344;6.240;2022-07-31T01:49:59;15.40;99.90
31837;DHT22;18401;49.344;6.240;2022-07-31T01:52:27;15.60;99.90
31837;DHT22;18401;49.344;6.240;2022-07-31T01:54:54;15.70;99.90
31837;DHT22;18401;49.344;6.240;2022-07-31T01:57:22;15.60;99.90
31837;DHT22;18401;49.344;6.240;2022-07-31T01:59:50;15.50;99.90
31837;DHT22;18401;49.344;6.240;2022-07-31T02:02:18;15.50;99.90
31837;DHT22;18401;49.344;6.240;2022-07-31T02:04:45;15.40;99.90
31837;DHT22;18401;49.344;6.240;2022-07-31T02:07:12;15.30;99.90
31837;DHT22;18401;49.344;6.240;2022-07-31T02:09:41;15.10;99.90
31837;DHT22;18401;49.344;6.240;2022-07-31T02:12:08;15.00;99.90
31837;DHT22;18401;49.344;6.240;2022-07-31T02:14:37;14.90;99.90
31837;DHT22;18401;49.344;6.240;2022-07-31T02:17:05;14.90;99.90
31837;DHT22;18401;49.344;6.240;2022-07-31T02:19:33;15.10;99.90
31837;DHT22;18401;49.344;6.240;2022-07-31T02:21:59;15.10;99.90
31837;DHT22;18401;49.344;6.240;2022-07-31T02:24:25;15.10;99.90
31837;DHT22;18401;49.344;6.240;2022-07-31T02:26:51;15.10;99.90
31837;DHT22;18401;49.344;6.240;2022-07-31T02:29:18;15.10;99.90
31837;DHT22;18401;49.344;6.240;2022-07-31T02:31:46;15.10;99.90
31837;DHT22;18401;49.344;6.240;2022-07-31T02:34:14;15.10;99.90
31837;DHT22;18401;49.344;6.240;2022-07-31T02:36:41;15.00;99.90
31837;DHT22;18401;49.344;6.240;2022-07-31T02:39:08;15.00;99.90
31837;DHT22;18401;49.344;6.240;2022-07-31T02:41:35;14.90;99.90
31837;DHT22;18401;49.344;6.240;2022-07-31T02:44:02;14.80;99.90
31837;DHT22;18401;49.344;6.240;2022-07-31T02:46:28;14.80;99.90
31837;DHT22;18401;49.344;6.240;2022-07-31T02:48:54;14.80;99.90
31837;DHT22;18401;49.344;6.240;2022-07-31T02:51:22;14.60;99.90
31837;DHT22;18401;49.344;6.240;2022-07-31T02:53:48;14.90;99.90
31837;DHT22;18401;49.344;6.240;2022-07-31T02:56:15;15.00;99.90
31837;DHT22;18401;49.344;6.240;2022-07-31T02:58:41;15.30;99.90
31837;DHT22;18401;49.344;6.240;2022-07-31T03:01:08;15.00;99.90
31837;DHT22;18401;49.344;6.240;2022-07-31T03:03:34;14.90;99.90
31837;DHT22;18401;49.344;6.240;2022-07-31T03:05:59;14.80;99.90
31837;DHT22;18401;49.344;6.240;2022-07-31T03:08:28;14.80;99.90
31837;DHT22;18401;49.344;6.240;2022-07-31T03:10:54;14.90;99.90
31837;DHT22;18401;49.344;6.240;2022-07-31T03:13:22;15.00;99.90
31837;DHT22;18401;49.344;6.240;2022-07-31T03:15:49;15.20;99.90
31837;DHT22;18401;49.344;6.240;2022-07-31T03:18:16;15.30;99.90
31837;DHT22;18401;49.344;6.240;2022-07-31T03:20:43;15.10;99.90
31837;DHT22;18401;49.344;6.240;2022-07-31T03:23:11;14.90;99.90
31837;DHT22;18401;49.344;6.240;2022-07-31T03:25:39;14.80;99.90
31837;DHT22;18401;49.344;6.240;2022-07-31T03:28:05;14.70;99.90
31837;DHT22;18401;49.344;6.240;2022-07-31T03:30:31;14.60;99.90
31837;DHT22;18401;49.344;6.240;2022-07-31T03:32:57;14.70;99.90
31837;DHT22;18401;49.344;6.240;2022-07-31T03:35:23;14.70;99.90
31837;DHT22;18401;49.344;6.240;2022-07-31T03:37:50;14.60;99.90
31837;DHT22;18401;49.344;6.240;2022-07-31T03:40:15;14.60;99.90
31837;DHT22;18401;49.344;6.240;2022-07-31T03:42:42;14.50;99.90
31837;DHT22;18401;49.344;6.240;2022-07-31T03:45:08;14.50;99.90
31837;DHT22;18401;49.344;6.240;2022-07-31T03:47:35;14.60;99.90
31837;DHT22;18401;49.344;6.240;2022-07-31T03:50:02;14.80;99.90
31837;DHT22;18401;49.344;6.240;2022-07-31T03:52:28;14.90;99.90
31837;DHT22;18401;49.344;6.240;2022-07-31T03:54:55;15.00;99.90
31837;DHT22;18401;49.344;6.240;2022-07-31T03:57:21;15.10;99.90
31837;DHT22;18401;49.344;6.240;2022-07-31T03:59:48;15.20;99.90
31837;DHT22;18401;49.344;6.240;2022-07-31T04:02:15;15.20;99.90
31837;DHT22;18401;49.344;6.240;2022-07-31T04:04:42;15.30;99.90
31837;DHT22;18401;49.344;6.240;2022-07-31T04:07:08;15.40;99.90
31837;DHT22;18401;49.344;6.240;2022-07-31T04:09:35;15.50;99.90
31837;DHT22;18401;49.344;6.240;2022-07-31T04:12:00;15.60;99.90
31837;DHT22;18401;49.344;6.240;2022-07-31T04:14:26;15.60;99.90
31837;DHT22;18401;49.344;6.240;2022-07-31T04:16:52;15.70;99.90
31837;DHT22;18401;49.344;6.240;2022-07-31T04:19:18;15.70;99.90
31837;DHT22;18401;49.344;6.240;2022-07-31T04:21:44;15.70;99.90
31837;DHT22;18401;49.344;6.240;2022-07-31T04:24:09;15.70;99.90
31837;DHT22;18401;49.344;6.240;2022-07-31T04:26:37;15.70;99.90
31837;DHT22;18401;49.344;6.240;2022-07-31T04:29:03;15.70;99.90
31837;DHT22;18401;49.344;6.240;2022-07-31T04:31:29;15.80;99.90
31837;DHT22;18401;49.344;6.240;2022-07-31T04:33:55;15.80;99.90
31837;DHT22;18401;49.344;6.240;2022-07-31T04:36:20;15.90;99.90
31837;DHT22;18401;49.344;6.240;2022-07-31T04:38:46;15.90;99.90
31837;DHT22;18401;49.344;6.240;2022-07-31T04:41:12;15.90;99.90
31837;DHT22;18401;49.344;6.240;2022-07-31T04:43:37;16.00;99.90
31837;DHT22;18401;49.344;6.240;2022-07-31T04:46:03;16.10;99.90
31837;DHT22;18401;49.344;6.240;2022-07-31T04:48:28;16.20;99.90
31837;DHT22;18401;49.344;6.240;2022-07-31T04:50:54;16.30;99.90
31837;DHT22;18401;49.344;6.240;2022-07-31T04:53:20;16.40;99.90
31837;DHT22;18401;49.344;6.240;2022-07-31T04:55:45;16.50;99.90
31837;DHT22;18401;49.344;6.240;2022-07-31T04:58:31;16.50;99.90
31837;DHT22;18401;49.344;6.240;2022-07-31T05:01:00;16.60;99.90
31837;DHT22;18401;49.344;6.240;2022-07-31T05:03:25;16.60;99.90
31837;DHT22;18401;49.344;6.240;2022-07-31T05:05:51;16.60;99.90
31837;DHT22;18401;49.344;6.240;2022-07-31T05:08:17;16.70;99.90
31837;DHT22;18401;49.344;6.240;2022-07-31T05:10:42;16.70;99.90
31837;DHT22;18401;49.344;6.240;2022-07-31T05:13:26;16.90;99.90
31837;DHT22;18401;49.344;6.240;2022-07-31T05:15:52;17.10;99.90
31837;DHT22;18401;49.344;6.240;2022-07-31T05:18:18;17.20;99.90
31837;DHT22;18401;49.344;6.240;2022-07-31T05:20:43;17.40;99.90
31837;DHT22;18401;49.344;6.240;2022-07-31T05:23:09;17.50;99.90
31837;DHT22;18401;49.344;6.240;2022-07-31T05:25:34;17.50;99.90
31837;DHT22;18401;49.344;6.240;2022-07-31T05:28:01;17.60;99.90
31837;DHT22;18401;49.344;6.240;2022-07-31T05:30:26;17.70;99.90
31837;DHT22;18401;49.344;6.240;2022-07-31T05:32:52;17.90;99.90
31837;DHT22;18401;49.344;6.240;2022-07-31T05:35:17;17.80;99.90
31837;DHT22;18401;49.344;6.240;2022-07-31T05:37:43;18.10;99.90
31837;DHT22;18401;49.344;6.240;2022-07-31T05:40:09;18.20;99.90
31837;DHT22;18401;49.344;6.240;2022-07-31T05:42:35;18.30;99.90
31837;DHT22;18401;49.344;6.240;2022-07-31T05:45:01;18.40;99.90
31837;DHT22;18401;49.344;6.240;2022-07-31T05:47:27;18.50;99.90
31837;DHT22;18401;49.344;6.240;2022-07-31T05:49:53;18.50;99.90
31837;DHT22;18401;49.344;6.240;2022-07-31T05:52:18;19.20;99.90
31837;DHT22;18401;49.344;6.240;2022-07-31T05:54:44;18.60;99.90
31837;DHT22;18401;49.344;6.240;2022-07-31T05:57:10;18.80;99.90
31837;DHT22;18401;49.344;6.240;2022-07-31T05:59:35;18.90;99.90
31837;DHT22;18401;49.344;6.240;2022-07-31T06:02:01;19.40;99.90
31837;DHT22;18401;49.344;6.240;2022-07-31T06:04:27;19.20;99.90
31837;DHT22;18401;49.344;6.240;2022-07-31T06:06:53;19.40;99.90
31837;DHT22;18401;49.344;6.240;2022-07-31T06:09:19;19.60;99.90
31837;DHT22;18401;49.344;6.240;2022-07-31T06:11:44;19.70;99.90
31837;DHT22;18401;49.344;6.240;2022-07-31T06:14:10;19.90;99.90
31837;DHT22;18401;49.344;6.240;2022-07-31T06:16:36;20.10;99.90
31837;DHT22;18401;49.344;6.240;2022-07-31T06:19:01;20.70;99.90
31837;DHT22;18401;49.344;6.240;2022-07-31T06:21:27;20.40;99.90
31837;DHT22;18401;49.344;6.240;2022-07-31T06:23:52;20.60;99.90
31837;DHT22;18401;49.344;6.240;2022-07-31T06:26:18;20.60;99.90
31837;DHT22;18401;49.344;6.240;2022-07-31T06:28:44;20.70;99.90
31837;DHT22;18401;49.344;6.240;2022-07-31T06:31:19;20.70;99.90
31837;DHT22;18401;49.344;6.240;2022-07-31T06:33:45;20.70;99.90
31837;DHT22;18401;49.344;6.240;2022-07-31T06:36:11;20.60;99.90
31837;DHT22;18401;49.344;6.240;2022-07-31T06:38:36;20.40;99.90
31837;DHT22;18401;49.344;6.240;2022-07-31T06:41:02;20.20;99.90
31837;DHT22;18401;49.344;6.240;2022-07-31T06:43:28;20.30;99.90
31837;DHT22;18401;49.344;6.240;2022-07-31T06:45:53;20.40;99.90
31837;DHT22;18401;49.344;6.240;2022-07-31T06:48:19;20.50;99.90
31837;DHT22;18401;49.344;6.240;2022-07-31T06:50:45;20.60;99.90
31837;DHT22;18401;49.344;6.240;2022-07-31T06:53:12;20.50;99.90
31837;DHT22;18401;49.344;6.240;2022-07-31T06:55:37;20.40;99.90
31837;DHT22;18401;49.344;6.240;2022-07-31T06:58:03;20.30;99.90
31837;DHT22;18401;49.344;6.240;2022-07-31T07:00:29;20.60;99.90
31837;DHT22;18401;49.344;6.240;2022-07-31T07:02:54;20.60;99.90
31837;DHT22;18401;49.344;6.240;2022-07-31T07:05:20;20.80;99.90
31837;DHT22;18401;49.344;6.240;2022-07-31T07:07:46;21.00;99.90
31837;DHT22;18401;49.344;6.240;2022-07-31T07:10:12;21.30;99.90
31837;DHT22;18401;49.344;6.240;2022-07-31T07:12:37;21.60;99.90
31837;DHT22;18401;49.344;6.240;2022-07-31T07:15:03;21.90;99.90
31837;DHT22;18401;49.344;6.240;2022-07-31T07:17:29;21.20;99.60
31837;DHT22;18401;49.344;6.240;2022-07-31T07:19:55;22.20;99.90
31837;DHT22;18401;49.344;6.240;2022-07-31T07:22:21;22.00;98.70
31837;DHT22;18401;49.344;6.240;2022-07-31T07:24:47;22.50;99.00
31837;DHT22;18401;49.344;6.240;2022-07-31T07:27:12;22.70;98.50
31837;DHT22;18401;49.344;6.240;2022-07-31T07:29:38;22.90;97.90
31837;DHT22;18401;49.344;6.240;2022-07-31T07:32:04;23.00;97.30
31837;DHT22;18401;49.344;6.240;2022-07-31T07:34:31;22.10;96.20
31837;DHT22;18401;49.344;6.240;2022-07-31T07:36:56;22.80;97.20
31837;DHT22;18401;49.344;6.240;2022-07-31T07:39:22;22.70;96.50
31837;DHT22;18401;49.344;6.240;2022-07-31T07:41:48;22.70;96.70
31837;DHT22;18401;49.344;6.240;2022-07-31T07:44:13;22.80;97.10
31837;DHT22;18401;49.344;6.240;2022-07-31T07:46:39;22.80;95.60
31837;DHT22;18401;49.344;6.240;2022-07-31T07:49:05;23.00;95.50
31837;DHT22;18401;49.344;6.240;2022-07-31T07:51:31;23.40;95.40
31837;DHT22;18401;49.344;6.240;2022-07-31T07:53:56;23.70;94.40
31837;DHT22;18401;49.344;6.240;2022-07-31T07:56:22;24.30;93.20
31837;DHT22;18401;49.344;6.240;2022-07-31T07:58:48;24.60;90.80
31837;DHT22;18401;49.344;6.240;2022-07-31T08:01:15;24.90;90.80
31837;DHT22;18401;49.344;6.240;2022-07-31T08:03:41;24.60;92.10
31837;DHT22;18401;49.344;6.240;2022-07-31T08:06:06;24.50;90.80
31837;DHT22;18401;49.344;6.240;2022-07-31T08:08:32;24.70;90.50
31837;DHT22;18401;49.344;6.240;2022-07-31T08:10:58;24.70;89.40
31837;DHT22;18401;49.344;6.240;2022-07-31T08:13:25;24.70;90.10
31837;DHT22;18401;49.344;6.240;2022-07-31T08:15:51;25.00;88.60
31837;DHT22;18401;49.344;6.240;2022-07-31T08:18:16;25.10;86.60
31837;DHT22;18401;49.344;6.240;2022-07-31T08:20:42;25.20;85.90
31837;DHT22;18401;49.344;6.240;2022-07-31T08:23:08;25.10;87.60
31837;DHT22;18401;49.344;6.240;2022-07-31T08:25:33;25.40;85.10
31837;DHT22;18401;49.344;6.240;2022-07-31T08:27:59;25.40;85.00
31837;DHT22;18401;49.344;6.240;2022-07-31T08:30:25;25.70;85.10
31837;DHT22;18401;49.344;6.240;2022-07-31T08:32:50;25.70;86.80
31837;DHT22;18401;49.344;6.240;2022-07-31T08:35:16;26.00;87.30
31837;DHT22;18401;49.344;6.240;2022-07-31T08:37:42;26.10;85.50
31837;DHT22;18401;49.344;6.240;2022-07-31T08:40:08;26.10;83.10
31837;DHT22;18401;49.344;6.240;2022-07-31T08:42:34;26.30;84.90
31837;DHT22;18401;49.344;6.240;2022-07-31T08:45:04;26.20;82.10
31837;DHT22;18401;49.344;6.240;2022-07-31T08:47:31;26.30;84.20
31837;DHT22;18401;49.344;6.240;2022-07-31T08:49:57;26.60;84.00
31837;DHT22;18401;49.344;6.240;2022-07-31T08:52:24;26.40;82.80
31837;DHT22;18401;49.344;6.240;2022-07-31T08:54:52;26.70;81.70
31837;DHT22;18401;49.344;6.240;2022-07-31T08:57:19;26.70;78.70
31837;DHT22;18401;49.344;6.240;2022-07-31T08:59:45;26.40;83.50
31837;DHT22;18401;49.344;6.240;2022-07-31T09:02:12;26.40;81.90
31837;DHT22;18401;49.344;6.240;2022-07-31T09:04:38;26.80;81.70
31837;DHT22;18401;49.344;6.240;2022-07-31T09:07:04;26.70;80.70
31837;DHT22;18401;49.344;6.240;2022-07-31T09:09:30;27.00;77.20
31837;DHT22;18401;49.344;6.240;2022-07-31T09:11:56;26.90;78.30
31837;DHT22;18401;49.344;6.240;2022-07-31T09:14:29;26.50;77.60
31837;DHT22;18401;49.344;6.240;2022-07-31T09:16:55;27.00;78.30
31837;DHT22;18401;49.344;6.240;2022-07-31T09:19:23;26.80;77.80
31837;DHT22;18401;49.344;6.240;2022-07-31T09:21:49;27.10;79.80
31837;DHT22;18401;49.344;6.240;2022-07-31T09:24:30;27.30;79.70
31837;DHT22;18401;49.344;6.240;2022-07-31T09:27:07;27.40;79.50
31837;DHT22;18401;49.344;6.240;2022-07-31T09:29:38;27.60;78.50
31837;DHT22;18401;49.344;6.240;2022-07-31T09:32:12;27.20;75.80
31837;DHT22;18401;49.344;6.240;2022-07-31T09:34:41;27.40;77.20
31837;DHT22;18401;49.344;6.240;2022-07-31T09:37:13;27.50;75.20
31837;DHT22;18401;49.344;6.240;2022-07-31T09:39:40;27.30;78.20
31837;DHT22;18401;49.344;6.240;2022-07-31T09:42:07;27.50;75.50
31837;DHT22;18401;49.344;6.240;2022-07-31T09:44:40;27.40;75.40
31837;DHT22;18401;49.344;6.240;2022-07-31T09:47:18;27.50;75.40
31837;DHT22;18401;49.344;6.240;2022-07-31T09:49:55;27.70;77.50
31837;DHT22;18401;49.344;6.240;2022-07-31T09:52:23;28.00;75.20
31837;DHT22;18401;49.344;6.240;2022-07-31T09:55:06;28.00;75.80
31837;DHT22;18401;49.344;6.240;2022-07-31T09:57:32;27.80;76.00
31837;DHT22;18401;49.344;6.240;2022-07-31T10:00:00;27.90;74.90
31837;DHT22;18401;49.344;6.240;2022-07-31T10:02:26;28.20;74.50
31837;DHT22;18401;49.344;6.240;2022-07-31T10:04:53;28.40;74.90
31837;DHT22;18401;49.344;6.240;2022-07-31T10:07:23;26.70;75.80
31837;DHT22;18401;49.344;6.240;2022-07-31T10:09:55;26.90;74.30
31837;DHT22;18401;49.344;6.240;2022-07-31T10:12:22;27.50;76.20
31837;DHT22;18401;49.344;6.240;2022-07-31T10:14:50;28.40;74.60
31837;DHT22;18401;49.344;6.240;2022-07-31T10:17:28;28.30;73.30
31837;DHT22;18401;49.344;6.240;2022-07-31T10:20:00;28.50;74.90
31837;DHT22;18401;49.344;6.240;2022-07-31T10:22:28;28.20;74.70
31837;DHT22;18401;49.344;6.240;2022-07-31T10:24:58;28.20;74.00
31837;DHT22;18401;49.344;6.240;2022-07-31T10:27:27;28.50;73.30
31837;DHT22;18401;49.344;6.240;2022-07-31T10:29:54;28.80;74.20
31837;DHT22;18401;49.344;6.240;2022-07-31T10:32:20;28.80;71.80
31837;DHT22;18401;49.344;6.240;2022-07-31T10:34:46;29.10;70.60
31837;DHT22;18401;49.344;6.240;2022-07-31T10:37:37;28.70;71.00
31837;DHT22;18401;49.344;6.240;2022-07-31T10:43:15;29.30;68.90
31837;DHT22;18401;49.344;6.240;2022-07-31T10:45:52;30.10;69.10
31837;DHT22;18401;49.344;6.240;2022-07-31T10:48:18;29.60;69.30
31837;DHT22;18401;49.344;6.240;2022-07-31T10:50:44;29.40;70.80
31837;DHT22;18401;49.344;6.240;2022-07-31T10:53:15;30.20;69.60
31837;DHT22;18401;49.344;6.240;2022-07-31T10:55:41;30.00;68.00
31837;DHT22;18401;49.344;6.240;2022-07-31T10:58:09;29.90;67.40
31837;DHT22;18401;49.344;6.240;2022-07-31T11:00:35;30.10;66.70
31837;DHT22;18401;49.344;6.240;2022-07-31T11:03:21;30.00;66.20
31837;DHT22;18401;49.344;6.240;2022-07-31T11:05:58;31.10;67.40
31837;DHT22;18401;49.344;6.240;2022-07-31T11:08:24;30.00;65.50
31837;DHT22;18401;49.344;6.240;2022-07-31T11:10:54;30.60;66.20
31837;DHT22;18401;49.344;6.240;2022-07-31T11:13:21;30.60;65.10
31837;DHT22;18401;49.344;6.240;2022-07-31T11:15:49;30.70;66.30
31837;DHT22;18401;49.344;6.240;2022-07-31T11:18:18;30.70;65.80
31837;DHT22;18401;49.344;6.240;2022-07-31T11:20:45;30.80;64.30
31837;DHT22;18401;49.344;6.240;2022-07-31T11:23:13;30.30;63.40
31837;DHT22;18401;49.344;6.240;2022-07-31T11:25:45;30.20;64.60
31837;DHT22;18401;49.344;6.240;2022-07-31T11:31:01;30.50;64.90
31837;DHT22;18401;49.344;6.240;2022-07-31T11:33:37;30.50;64.60
31837;DHT22;18401;49.344;6.240;2022-07-31T11:36:12;30.30;63.20
31837;DHT22;18401;49.344;6.240;2022-07-31T11:38:40;30.50;61.80
31837;DHT22;18401;49.344;6.240;2022-07-31T11:41:06;31.80;64.10
31837;DHT22;18401;49.344;6.240;2022-07-31T11:43:32;31.90;62.30
31837;DHT22;18401;49.344;6.240;2022-07-31T11:46:00;31.50;57.10
31837;DHT22;18401;49.344;6.240;2022-07-31T11:48:26;32.00;57.60
31837;DHT22;18401;49.344;6.240;2022-07-31T11:50:56;30.70;59.50
31837;DHT22;18401;49.344;6.240;2022-07-31T11:53:21;30.50;60.20
31837;DHT22;18401;49.344;6.240;2022-07-31T11:58:18;31.10;57.20
31837;DHT22;18401;49.344;6.240;2022-07-31T12:00:51;31.30;57.50
31837;DHT22;18401;49.344;6.240;2022-07-31T12:03:23;30.50;58.00
31837;DHT22;18401;49.344;6.240;2022-07-31T12:05:51;30.60;57.10
31837;DHT22;18401;49.344;6.240;2022-07-31T12:08:17;31.30;56.60
31837;DHT22;18401;49.344;6.240;2022-07-31T12:10:44;30.30;58.30
31837;DHT22;18401;49.344;6.240;2022-07-31T12:13:16;30.50;58.10
31837;DHT22;18401;49.344;6.240;2022-07-31T12:16:07;30.70;57.90
31837;DHT22;18401;49.344;6.240;2022-07-31T12:18:58;30.80;59.30
31837;DHT22;18401;49.344;6.240;2022-07-31T12:21:35;30.70;58.80
31837;DHT22;18401;49.344;6.240;2022-07-31T12:24:01;31.00;58.30
31837;DHT22;18401;49.344;6.240;2022-07-31T12:26:33;30.60;56.40
31837;DHT22;18401;49.344;6.240;2022-07-31T12:31:30;30.10;57.10
31837;DHT22;18401;49.344;6.240;2022-07-31T12:33:57;30.80;56.30
31837;DHT22;18401;49.344;6.240;2022-07-31T12:36:22;31.20;55.30
31837;DHT22;18401;49.344;6.240;2022-07-31T12:38:59;33.10;54.30
31837;DHT22;18401;49.344;6.240;2022-07-31T12:41:26;31.80;54.30
31837;DHT22;18401;49.344;6.240;2022-07-31T12:43:52;32.20;53.90
31837;DHT22;18401;49.344;6.240;2022-07-31T12:46:19;31.10;57.10
31837;DHT22;18401;49.344;6.240;2022-07-31T12:48:44;30.30;54.50
31837;DHT22;18401;49.344;6.240;2022-07-31T12:51:10;30.20;56.90
31837;DHT22;18401;49.344;6.240;2022-07-31T12:53:36;30.90;54.60
31837;DHT22;18401;49.344;6.240;2022-07-31T12:56:02;30.80;54.30
31837;DHT22;18401;49.344;6.240;2022-07-31T12:58:27;31.80;52.70
31837;DHT22;18401;49.344;6.240;2022-07-31T13:00:53;31.40;54.00
31837;DHT22;18401;49.344;6.240;2022-07-31T13:03:21;31.10;54.20
31837;DHT22;18401;49.344;6.240;2022-07-31T13:05:47;31.10;51.90
31837;DHT22;18401;49.344;6.240;2022-07-31T13:08:13;32.40;52.60
31837;DHT22;18401;49.344;6.240;2022-07-31T13:10:39;32.40;50.70
31837;DHT22;18401;49.344;6.240;2022-07-31T13:13:04;31.90;52.90
31837;DHT22;18401;49.344;6.240;2022-07-31T13:15:30;31.60;52.70
31837;DHT22;18401;49.344;6.240;2022-07-31T13:17:56;31.50;51.80
31837;DHT22;18401;49.344;6.240;2022-07-31T13:20:22;31.00;49.80
31837;DHT22;18401;49.344;6.240;2022-07-31T13:22:48;31.20;51.80
31837;DHT22;18401;49.344;6.240;2022-07-31T13:25:14;31.50;54.10
31837;DHT22;18401;49.344;6.240;2022-07-31T13:27:40;30.90;53.00
31837;DHT22;18401;49.344;6.240;2022-07-31T13:30:06;30.80;52.70
31837;DHT22;18401;49.344;6.240;2022-07-31T13:32:32;30.80;52.10
31837;DHT22;18401;49.344;6.240;2022-07-31T13:34:58;31.30;52.50
31837;DHT22;18401;49.344;6.240;2022-07-31T13:37:24;30.70;54.50
31837;DHT22;18401;49.344;6.240;2022-07-31T13:39:49;31.10;53.10
31837;DHT22;18401;49.344;6.240;2022-07-31T13:42:15;30.80;51.90
31837;DHT22;18401;49.344;6.240;2022-07-31T13:44:41;31.20;51.60
31837;DHT22;18401;49.344;6.240;2022-07-31T13:47:06;31.40;53.20
31837;DHT22;18401;49.344;6.240;2022-07-31T13:49:32;31.60;50.80
31837;DHT22;18401;49.344;6.240;2022-07-31T13:51:58;30.30;52.30
31837;DHT22;18401;49.344;6.240;2022-07-31T13:54:24;30.50;53.70
31837;DHT22;18401;49.344;6.240;2022-07-31T13:56:51;30.60;54.30
31837;DHT22;18401;49.344;6.240;2022-07-31T13:59:16;30.90;53.00
31837;DHT22;18401;49.344;6.240;2022-07-31T14:01:42;30.80;54.00
31837;DHT22;18401;49.344;6.240;2022-07-31T14:04:10;32.60;53.80
31837;DHT22;18401;49.344;6.240;2022-07-31T14:06:35;31.70;51.00
31837;DHT22;18401;49.344;6.240;2022-07-31T14:09:01;31.80;52.30
31837;DHT22;18401;49.344;6.240;2022-07-31T14:11:27;30.90;52.90
31837;DHT22;18401;49.344;6.240;2022-07-31T14:13:53;30.40;54.10
31837;DHT22;18401;49.344;6.240;2022-07-31T14:16:19;30.60;54.40
31837;DHT22;18401;49.344;6.240;2022-07-31T14:18:44;30.60;53.40
31837;DHT22;18401;49.344;6.240;2022-07-31T14:21:10;30.30;52.90
31837;DHT22;18401;49.344;6.240;2022-07-31T14:23:36;30.60;54.60
31837;DHT22;18401;49.344;6.240;2022-07-31T14:26:02;30.30;53.50
31837;DHT22;18401;49.344;6.240;2022-07-31T14:28:29;30.80;53.50
31837;DHT22;18401;49.344;6.240;2022-07-31T14:30:55;30.70;52.40
31837;DHT22;18401;49.344;6.240;2022-07-31T14:33:21;30.20;53.80
31837;DHT22;18401;49.344;6.240;2022-07-31T14:35:46;30.50;52.60
31837;DHT22;18401;49.344;6.240;2022-07-31T14:38:12;30.70;51.30
31837;DHT22;18401;49.344;6.240;2022-07-31T14:40:37;30.90;51.70
31837;DHT22;18401;49.344;6.240;2022-07-31T14:43:03;30.80;52.20
31837;DHT22;18401;49.344;6.240;2022-07-31T14:45:29;30.80;52.30
31837;DHT22;18401;49.344;6.240;2022-07-31T14:47:55;30.70;52.40
31837;DHT22;18401;49.344;6.240;2022-07-31T14:50:21;30.80;53.70
31837;DHT22;18401;49.344;6.240;2022-07-31T14:52:47;30.70;54.40
31837;DHT22;18401;49.344;6.240;2022-07-31T14:55:13;30.30;53.00
31837;DHT22;18401;49.344;6.240;2022-07-31T14:57:38;30.30;52.70
31837;DHT22;18401;49.344;6.240;2022-07-31T15:00:05;30.40;52.10
31837;DHT22;18401;49.344;6.240;2022-07-31T15:02:38;30.20;54.00
31837;DHT22;18401;49.344;6.240;2022-07-31T15:05:04;30.50;53.50
31837;DHT22;18401;49.344;6.240;2022-07-31T15:07:30;31.20;52.80
31837;DHT22;18401;49.344;6.240;2022-07-31T15:09:55;32.10;55.00
31837;DHT22;18401;49.344;6.240;2022-07-31T15:12:21;30.20;52.00
31837;DHT22;18401;49.344;6.240;2022-07-31T15:14:47;30.60;51.70
31837;DHT22;18401;49.344;6.240;2022-07-31T15:17:12;30.40;52.00
31837;DHT22;18401;49.344;6.240;2022-07-31T15:19:38;30.50;50.90
31837;DHT22;18401;49.344;6.240;2022-07-31T15:22:04;30.50;50.40
31837;DHT22;18401;49.344;6.240;2022-07-31T15:24:30;30.40;53.30
31837;DHT22;18401;49.344;6.240;2022-07-31T15:26:55;30.90;53.30
31837;DHT22;18401;49.344;6.240;2022-07-31T15:29:21;30.70;50.70
31837;DHT22;18401;49.344;6.240;2022-07-31T15:31:46;30.10;51.60
31837;DHT22;18401;49.344;6.240;2022-07-31T15:34:12;30.20;52.60
31837;DHT22;18401;49.344;6.240;2022-07-31T15:36:38;30.50;53.60
31837;DHT22;18401;49.344;6.240;2022-07-31T15:39:03;30.70;52.80
31837;DHT22;18401;49.344;6.240;2022-07-31T15:41:29;30.90;52.20
31837;DHT22;18401;49.344;6.240;2022-07-31T15:43:55;30.80;51.90
31837;DHT22;18401;49.344;6.240;2022-07-31T15:46:21;30.20;54.00